createdAt,value
2019-05-30T00:04:40.203Z,101879.22
2019-05-30T00:10:05.567Z,101881.21
2019-05-30T00:15:29.900Z,101889.70
2019-05-30T00:20:54.732Z,101893.09
2019-05-30T00:26:18.502Z,101893.59
2019-05-30T00:31:44.398Z,101903.66
2019-05-30T00:37:08.506Z,101894.55
2019-05-30T00:42:32.872Z,101893.75
2019-05-30T00:47:58.058Z,101890.20
2019-05-30T00:53:22.520Z,101892.20
2019-05-30T00:58:46.492Z,101889.72
2019-05-30T01:04:10.061Z,101893.41
2019-05-30T01:09:33.808Z,101894.30
2019-05-30T01:14:58.878Z,101893.69
2019-05-30T01:20:22.893Z,101896.00
2019-05-30T01:25:46.609Z,101895.16
2019-05-30T01:31:11.684Z,101898.16
2019-05-30T01:36:35.632Z,101895.89
2019-05-30T01:41:59.728Z,101896.11
2019-05-30T01:47:23.405Z,101890.63
2019-05-30T01:52:48.034Z,101888.73
2019-05-30T01:58:11.816Z,101891.66
2019-05-30T02:03:35.482Z,101893.39
2019-05-30T02:09:01.093Z,101896.00
2019-05-30T02:14:26.902Z,101903.65
2019-05-30T02:19:51.668Z,101897.35
2019-05-30T02:25:15.791Z,101902.88
2019-05-30T02:30:40.372Z,101889.07
2019-05-30T02:36:06.319Z,101887.95
2019-05-30T02:41:30.338Z,101895.67
2019-05-30T02:46:57.853Z,101893.97
2019-05-30T02:52:21.434Z,101900.88
2019-05-30T02:57:45.135Z,101907.95
2019-05-30T03:03:12.360Z,101918.19
2019-05-30T03:08:34.906Z,101920.30
2019-05-30T03:14:02.183Z,101924.40
2019-05-30T03:19:26.310Z,101935.28
2019-05-30T03:24:51.091Z,101928.23
2019-05-30T03:30:26.126Z,101930.86
2019-05-30T03:35:44.211Z,101928.41
2019-05-30T03:41:09.952Z,101929.09
2019-05-30T03:46:37.710Z,101938.55
2019-05-30T03:52:08.181Z,101937.61
2019-05-30T03:57:34.705Z,101933.34
2019-05-30T04:03:07.401Z,101937.02
2019-05-30T04:08:34.584Z,101941.42
2019-05-30T04:14:01.386Z,101936.79
2019-05-30T04:19:25.742Z,101935.15
2019-05-30T04:24:50.058Z,101931.36
2019-05-30T04:30:14.837Z,101931.19
2019-05-30T04:35:39.702Z,101931.84
2019-05-30T04:41:04.398Z,101931.80
2019-05-30T04:46:29.061Z,101929.13
2019-05-30T04:51:53.142Z,101935.08
2019-05-30T04:57:17.020Z,101936.70
2019-05-30T05:02:41.305Z,101932.33
2019-05-30T05:08:05.178Z,101947.84
2019-05-30T05:13:29.151Z,101937.88
2019-05-30T05:18:53.915Z,101938.66
2019-05-30T05:24:19.362Z,101930.88
2019-05-30T05:29:43.364Z,101930.95
2019-05-30T05:35:07.933Z,101939.44
2019-05-30T05:40:31.963Z,101927.86
2019-05-30T05:45:55.877Z,101926.94
2019-05-30T05:51:20.826Z,101928.50
2019-05-30T05:56:45.344Z,101927.26
2019-05-30T06:02:10.079Z,101935.61
2019-05-30T06:07:33.757Z,101937.55
2019-05-30T06:12:59.131Z,101932.61
2019-05-30T06:18:24.202Z,101926.02
2019-05-30T06:23:48.067Z,101928.61
2019-05-30T06:29:11.859Z,101932.69
2019-05-30T06:34:39.616Z,101934.44
2019-05-30T06:40:02.229Z,101928.53
2019-05-30T06:45:28.386Z,101932.30
2019-05-30T06:50:52.959Z,101935.95
2019-05-30T06:56:16.970Z,101928.56
2019-05-30T07:01:41.466Z,101922.83
2019-05-30T07:07:06.658Z,101930.66
2019-05-30T07:12:31.261Z,101920.08
2019-05-30T07:17:56.018Z,101924.27
2019-05-30T07:23:19.997Z,101921.26
2019-05-30T07:28:45.281Z,101921.00
2019-05-30T07:34:09.587Z,101904.17
2019-05-30T07:39:37.427Z,101900.52
2019-05-30T07:45:00.814Z,101898.91
2019-05-30T07:50:26.295Z,101900.03
2019-05-30T07:55:50.086Z,101900.05
2019-05-30T08:01:14.537Z,101893.84
2019-05-30T08:06:38.832Z,101891.52
2019-05-30T08:12:03.756Z,101902.65
2019-05-30T08:17:29.399Z,101888.86
2019-05-30T08:22:54.304Z,101880.23
2019-05-30T08:28:18.110Z,101896.05
2019-05-30T08:33:42.167Z,101875.28
2019-05-30T08:39:07.598Z,101875.28
2019-05-30T08:44:31.656Z,101869.11
2019-05-30T08:49:56.999Z,101875.73
2019-05-30T08:55:21.381Z,101868.69
2019-05-30T09:00:46.142Z,101851.18
2019-05-30T09:06:09.716Z,101839.11
2019-05-30T09:11:33.489Z,101834.55
2019-05-30T09:16:57.167Z,101834.55
2019-05-30T09:22:20.690Z,101840.17
2019-05-30T09:27:44.887Z,101828.78
2019-05-30T09:33:11.097Z,101826.90
2019-05-30T09:38:35.707Z,101813.75
2019-05-30T09:44:01.411Z,101824.17
2019-05-30T09:49:25.767Z,101813.66
2019-05-30T09:54:50.442Z,101816.04
2019-05-30T10:00:17.053Z,101814.39
2019-05-30T10:05:43.279Z,101815.03
2019-05-30T10:11:06.649Z,101815.25
2019-05-30T10:16:31.314Z,101803.27
2019-05-30T10:21:55.645Z,101798.38
2019-05-30T10:27:19.238Z,101781.08
2019-05-30T10:32:43.257Z,101792.91
2019-05-30T10:38:07.783Z,101773.23
2019-05-30T10:43:32.393Z,101769.69
2019-05-30T10:48:56.952Z,101775.32
2019-05-30T10:54:20.691Z,101772.55
2019-05-30T10:59:45.966Z,101764.23
2019-05-30T11:05:12.695Z,101751.28
2019-05-30T11:10:39.636Z,101741.98
2019-05-30T11:16:03.924Z,101734.17
2019-05-30T11:21:27.540Z,101734.13
2019-05-30T11:26:52.611Z,101710.89
2019-05-30T11:32:17.882Z,101703.86
2019-05-30T11:37:41.662Z,101698.34
2019-05-30T11:43:06.206Z,101690.52
2019-05-30T11:48:30.323Z,101679.62
2019-05-30T11:53:54.026Z,101683.59
2019-05-30T11:59:18.671Z,101673.43
2019-05-30T12:04:42.541Z,101662.64
2019-05-30T12:10:08.793Z,101666.53
2019-05-30T12:15:33.271Z,101663.52
2019-05-30T12:20:57.773Z,101647.33
2019-05-30T12:26:22.182Z,101656.05
2019-05-30T12:31:45.977Z,101644.92
2019-05-30T12:37:09.785Z,101645.53
2019-05-30T12:42:34.232Z,101650.09
2019-05-30T12:47:59.232Z,101638.83
2019-05-30T12:53:23.212Z,101636.52
2019-05-30T12:58:47.828Z,101625.78
2019-05-30T13:04:12.284Z,101615.07
2019-05-30T13:09:36.137Z,101611.44
2019-05-30T13:15:00.171Z,101617.70
2019-05-30T13:20:24.131Z,101613.68
2019-05-30T13:25:48.756Z,101615.95
2019-05-30T13:31:12.399Z,101615.38
2019-05-30T13:36:36.310Z,101606.92
2019-05-30T13:42:01.628Z,101595.13
2019-05-30T13:47:25.867Z,101590.67
2019-05-30T13:52:50.083Z,101587.15
2019-05-30T13:58:14.190Z,101580.70
2019-05-30T14:03:38.219Z,101590.41
2019-05-30T14:09:02.477Z,101591.07
2019-05-30T14:14:28.399Z,101587.38
2019-05-30T14:19:52.319Z,101580.95
2019-05-30T14:25:19.707Z,101582.06
2019-05-30T14:30:43.930Z,101578.31
2019-05-30T14:36:10.945Z,101580.15
2019-05-30T14:41:33.223Z,101584.75
2019-05-30T14:46:57.855Z,101584.47
2019-05-30T14:52:22.540Z,101574.82
2019-05-30T14:57:46.702Z,101566.88
2019-05-30T15:03:15.430Z,101563.91
2019-05-30T15:08:37.424Z,101560.59
2019-05-30T15:14:01.152Z,101570.02
2019-05-30T15:19:26.188Z,101568.61
2019-05-30T15:24:50.180Z,101552.16
2019-05-30T15:30:14.774Z,101553.11
2019-05-30T15:35:39.762Z,101540.41
2019-05-30T15:41:03.874Z,101553.30
2019-05-30T15:46:28.025Z,101553.30
2019-05-30T15:51:52.187Z,101554.84
2019-05-30T15:57:15.773Z,101550.55
2019-05-30T16:02:39.740Z,101553.80
2019-05-30T16:08:03.601Z,101552.59
2019-05-30T16:13:27.983Z,101556.94
2019-05-30T16:18:52.692Z,101551.96
2019-05-30T16:24:18.539Z,101554.80
2019-05-30T16:29:43.650Z,101556.24
2019-05-30T16:35:09.787Z,101558.70
2019-05-30T16:40:33.746Z,101560.08
2019-05-30T16:45:58.108Z,101567.95
2019-05-30T16:51:23.589Z,101572.39
2019-05-30T16:56:48.649Z,101574.19
2019-05-30T17:02:14.672Z,101568.84
2019-05-30T17:07:38.463Z,101553.81
2019-05-30T17:13:03.060Z,101557.66
2019-05-30T17:18:27.752Z,101551.80
2019-05-30T17:23:51.526Z,101552.97
2019-05-30T17:29:17.303Z,101549.42
2019-05-30T17:34:41.001Z,101543.26
2019-05-30T17:40:05.869Z,101543.26
2019-05-30T17:45:30.722Z,101550.16
2019-05-30T17:50:54.374Z,101566.81
2019-05-30T17:56:19.891Z,101563.83
2019-05-30T18:01:44.726Z,101567.72
2019-05-30T18:07:09.804Z,101578.28
2019-05-30T18:12:34.834Z,101579.34
2019-05-30T18:17:58.648Z,101587.47
2019-05-30T18:23:23.519Z,101594.16
2019-05-30T18:28:47.549Z,101595.41
2019-05-30T18:34:12.359Z,101598.48
2019-05-30T18:39:37.174Z,101599.91
2019-05-30T18:45:01.566Z,101605.31
2019-05-30T18:50:25.459Z,101601.80
2019-05-30T18:55:49.915Z,101601.98
2019-05-30T19:01:14.803Z,101608.84
2019-05-30T19:06:40.434Z,101600.16
2019-05-30T19:12:05.229Z,101615.82
2019-05-30T19:17:29.580Z,101616.75
2019-05-30T19:22:54.593Z,101624.98
2019-05-30T19:28:18.288Z,101634.64
2019-05-30T19:33:42.374Z,101641.92
2019-05-30T19:39:06.939Z,101639.85
2019-05-30T19:44:31.942Z,101660.75
2019-05-30T19:49:55.583Z,101657.05
2019-05-30T19:55:21.470Z,101666.48
2019-05-30T20:00:58.013Z,101664.56
2019-05-30T20:06:10.508Z,101662.53
2019-05-30T20:11:35.440Z,101667.59
2019-05-30T20:17:00.179Z,101668.38
2019-05-30T20:22:24.645Z,101668.11
2019-05-30T20:27:48.390Z,101667.03
2019-05-30T20:33:13.198Z,101655.73
2019-05-30T20:38:38.636Z,101652.39
2019-05-30T20:44:03.572Z,101657.72
2019-05-30T20:49:29.351Z,101658.18
2019-05-30T20:54:53.879Z,101658.39
2019-05-30T21:00:18.698Z,101661.81
2019-05-30T21:05:44.300Z,101661.98
2019-05-30T21:11:11.001Z,101667.50
2019-05-30T21:16:35.768Z,101668.39
2019-05-30T21:21:59.508Z,101673.17
2019-05-30T21:27:24.380Z,101673.86
2019-05-30T21:32:49.482Z,101677.64
2019-05-30T21:38:13.592Z,101676.18
2019-05-30T21:43:38.383Z,101685.80
2019-05-30T21:49:02.677Z,101685.75
2019-05-30T21:54:27.263Z,101692.73
2019-05-30T21:59:52.008Z,101681.83
2019-05-30T22:05:16.735Z,101678.41
2019-05-30T22:10:41.349Z,101683.36
2019-05-30T22:16:06.090Z,101682.53
2019-05-30T22:21:30.370Z,101682.28
2019-05-30T22:26:54.932Z,101678.20
2019-05-30T22:32:19.657Z,101682.75
2019-05-30T22:37:44.707Z,101683.45
2019-05-30T22:43:24.318Z,101684.76
2019-05-30T22:48:35.390Z,101676.91
2019-05-30T22:54:00.943Z,101690.58
2019-05-30T22:59:25.600Z,101688.51
2019-05-30T23:04:50.239Z,101690.16
2019-05-30T23:10:14.837Z,101684.34
2019-05-30T23:15:39.647Z,101681.66
2019-05-30T23:21:04.345Z,101679.86
2019-05-30T23:26:29.115Z,101686.66
2019-05-30T23:31:54.129Z,101685.63
2019-05-30T23:37:18.998Z,101678.94
2019-05-30T23:42:42.821Z,101690.55
2019-05-30T23:48:07.502Z,101685.92
2019-05-30T23:53:32.188Z,101694.98
2019-05-30T23:58:56.829Z,101689.80
